sensor_id;sensor_type;location;lat;lon;timestamp;P1;durP1;ratioP1;P2;durP2;ratioP2
74448;SDS011;62878;51.026;4.472;2022-12-11T00:00:33;6.35;;;3.08;;
74448;SDS011;62878;51.026;4.472;2022-12-11T00:02:59;6.07;;;3.33;;
74448;SDS011;62878;51.026;4.472;2022-12-11T00:05:24;6.45;;;2.95;;
74448;SDS011;62878;51.026;4.472;2022-12-11T00:07:49;4.82;;;3.03;;
74448;SDS011;62878;51.026;4.472;2022-12-11T00:10:15;6.25;;;3.60;;
74448;SDS011;62878;51.026;4.472;2022-12-11T00:12:40;5.78;;;2.97;;
74448;SDS011;62878;51.026;4.472;2022-12-11T00:15:05;5.78;;;2.78;;
74448;SDS011;62878;51.026;4.472;2022-12-11T00:17:31;7.03;;;3.38;;
74448;SDS011;62878;51.026;4.472;2022-12-11T00:19:56;5.30;;;2.67;;
74448;SDS011;62878;51.026;4.472;2022-12-11T00:22:22;4.90;;;2.72;;
74448;SDS011;62878;51.026;4.472;2022-12-11T00:24:47;5.78;;;2.85;;
74448;SDS011;62878;51.026;4.472;2022-12-11T00:27:12;4.30;;;2.17;;
74448;SDS011;62878;51.026;4.472;2022-12-11T00:29:38;5.30;;;2.67;;
74448;SDS011;62878;51.026;4.472;2022-12-11T00:32:03;6.32;;;2.80;;
74448;SDS011;62878;51.026;4.472;2022-12-11T00:34:28;6.35;;;2.53;;
74448;SDS011;62878;51.026;4.472;2022-12-11T00:36:54;4.18;;;2.75;;
74448;SDS011;62878;51.026;4.472;2022-12-11T00:39:19;5.32;;;2.60;;
74448;SDS011;62878;51.026;4.472;2022-12-11T00:41:44;4.30;;;2.80;;
74448;SDS011;62878;51.026;4.472;2022-12-11T00:44:10;4.72;;;2.42;;
74448;SDS011;62878;51.026;4.472;2022-12-11T00:46:35;5.35;;;2.22;;
74448;SDS011;62878;51.026;4.472;2022-12-11T00:49:00;5.50;;;2.88;;
74448;SDS011;62878;51.026;4.472;2022-12-11T00:51:26;5.78;;;2.50;;
74448;SDS011;62878;51.026;4.472;2022-12-11T00:53:51;2.97;;;1.83;;
74448;SDS011;62878;51.026;4.472;2022-12-11T00:56:17;5.25;;;2.95;;
74448;SDS011;62878;51.026;4.472;2022-12-11T00:58:45;5.82;;;3.05;;
74448;SDS011;62878;51.026;4.472;2022-12-11T01:01:12;3.92;;;2.45;;
74448;SDS011;62878;51.026;4.472;2022-12-11T01:03:39;5.97;;;2.88;;
74448;SDS011;62878;51.026;4.472;2022-12-11T01:06:05;4.72;;;2.45;;
74448;SDS011;62878;51.026;4.472;2022-12-11T01:08:31;5.18;;;2.35;;
74448;SDS011;62878;51.026;4.472;2022-12-11T01:11:00;5.35;;;3.08;;
74448;SDS011;62878;51.026;4.472;2022-12-11T01:13:30;4.60;;;2.63;;
74448;SDS011;62878;51.026;4.472;2022-12-11T01:15:57;5.57;;;2.47;;
74448;SDS011;62878;51.026;4.472;2022-12-11T01:18:23;5.18;;;2.63;;
74448;SDS011;62878;51.026;4.472;2022-12-11T01:20:48;5.03;;;2.58;;
74448;SDS011;62878;51.026;4.472;2022-12-11T01:23:14;5.75;;;2.83;;
74448;SDS011;62878;51.026;4.472;2022-12-11T01:25:40;7.15;;;2.95;;
74448;SDS011;62878;51.026;4.472;2022-12-11T01:28:06;5.78;;;2.78;;
74448;SDS011;62878;51.026;4.472;2022-12-11T01:30:32;4.47;;;2.53;;
74448;SDS011;62878;51.026;4.472;2022-12-11T01:32:57;4.38;;;2.55;;
74448;SDS011;62878;51.026;4.472;2022-12-11T01:35:24;5.38;;;2.85;;
74448;SDS011;62878;51.026;4.472;2022-12-11T01:37:49;6.03;;;2.13;;
74448;SDS011;62878;51.026;4.472;2022-12-11T01:40:15;6.65;;;2.88;;
74448;SDS011;62878;51.026;4.472;2022-12-11T01:42:42;4.47;;;2.20;;
74448;SDS011;62878;51.026;4.472;2022-12-11T01:47:45;7.75;;;2.65;;
74448;SDS011;62878;51.026;4.472;2022-12-11T01:50:13;5.38;;;2.75;;
74448;SDS011;62878;51.026;4.472;2022-12-11T01:52:39;3.85;;;2.33;;
74448;SDS011;62878;51.026;4.472;2022-12-11T01:55:07;6.10;;;2.28;;
74448;SDS011;62878;51.026;4.472;2022-12-11T01:57:33;5.47;;;2.40;;
74448;SDS011;62878;51.026;4.472;2022-12-11T02:00:01;5.57;;;3.15;;
74448;SDS011;62878;51.026;4.472;2022-12-11T02:02:28;4.78;;;2.10;;
74448;SDS011;62878;51.026;4.472;2022-12-11T02:04:55;5.82;;;3.05;;
74448;SDS011;62878;51.026;4.472;2022-12-11T02:07:21;7.78;;;3.15;;
74448;SDS011;62878;51.026;4.472;2022-12-11T02:09:46;4.32;;;2.42;;
74448;SDS011;62878;51.026;4.472;2022-12-11T02:12:25;5.47;;;2.50;;
74448;SDS011;62878;51.026;4.472;2022-12-11T02:15:08;6.55;;;3.08;;
74448;SDS011;62878;51.026;4.472;2022-12-11T02:22:58;6.40;;;3.00;;
74448;SDS011;62878;51.026;4.472;2022-12-11T02:26:05;5.88;;;2.63;;
74448;SDS011;62878;51.026;4.472;2022-12-11T02:28:44;5.35;;;3.15;;
74448;SDS011;62878;51.026;4.472;2022-12-11T02:31:21;3.83;;;1.63;;
74448;SDS011;62878;51.026;4.472;2022-12-11T02:34:11;5.05;;;2.22;;
74448;SDS011;62878;51.026;4.472;2022-12-11T02:36:44;3.92;;;2.10;;
74448;SDS011;62878;51.026;4.472;2022-12-11T02:39:16;4.97;;;2.60;;
74448;SDS011;62878;51.026;4.472;2022-12-11T02:41:43;5.55;;;2.70;;
74448;SDS011;62878;51.026;4.472;2022-12-11T02:44:12;5.60;;;2.55;;
74448;SDS011;62878;51.026;4.472;2022-12-11T02:46:39;4.13;;;2.15;;
74448;SDS011;62878;51.026;4.472;2022-12-11T02:49:06;6.57;;;2.97;;
74448;SDS011;62878;51.026;4.472;2022-12-11T02:51:35;4.78;;;2.55;;
74448;SDS011;62878;51.026;4.472;2022-12-11T02:54:04;4.35;;;2.55;;
74448;SDS011;62878;51.026;4.472;2022-12-11T02:56:37;7.85;;;3.15;;
74448;SDS011;62878;51.026;4.472;2022-12-11T02:59:08;5.45;;;2.50;;
74448;SDS011;62878;51.026;4.472;2022-12-11T03:01:37;5.65;;;2.72;;
74448;SDS011;62878;51.026;4.472;2022-12-11T03:04:02;4.80;;;2.25;;
74448;SDS011;62878;51.026;4.472;2022-12-11T03:06:31;7.43;;;2.42;;
74448;SDS011;62878;51.026;4.472;2022-12-11T03:09:00;6.90;;;2.80;;
74448;SDS011;62878;51.026;4.472;2022-12-11T03:11:25;5.43;;;2.22;;
74448;SDS011;62878;51.026;4.472;2022-12-11T03:13:51;4.35;;;2.55;;
74448;SDS011;62878;51.026;4.472;2022-12-11T03:18:58;6.05;;;2.72;;
74448;SDS011;62878;51.026;4.472;2022-12-11T03:26:53;7.40;;;2.75;;
74448;SDS011;62878;51.026;4.472;2022-12-11T03:29:22;6.38;;;2.95;;
74448;SDS011;62878;51.026;4.472;2022-12-11T03:31:58;4.88;;;2.58;;
74448;SDS011;62878;51.026;4.472;2022-12-11T03:34:41;6.07;;;2.80;;
74448;SDS011;62878;51.026;4.472;2022-12-11T03:37:10;5.57;;;3.13;;
74448;SDS011;62878;51.026;4.472;2022-12-11T03:39:39;6.00;;;3.03;;
74448;SDS011;62878;51.026;4.472;2022-12-11T03:42:09;5.45;;;2.42;;
74448;SDS011;62878;51.026;4.472;2022-12-11T03:44:38;6.55;;;3.05;;
74448;SDS011;62878;51.026;4.472;2022-12-11T03:47:06;4.45;;;2.28;;
74448;SDS011;62878;51.026;4.472;2022-12-11T03:49:37;5.53;;;3.05;;
74448;SDS011;62878;51.026;4.472;2022-12-11T03:52:06;6.43;;;2.85;;
74448;SDS011;62878;51.026;4.472;2022-12-11T03:54:33;5.13;;;2.70;;
74448;SDS011;62878;51.026;4.472;2022-12-11T03:57:00;5.30;;;2.35;;
74448;SDS011;62878;51.026;4.472;2022-12-11T03:59:28;4.65;;;2.72;;
74448;SDS011;62878;51.026;4.472;2022-12-11T04:01:54;5.30;;;2.53;;
74448;SDS011;62878;51.026;4.472;2022-12-11T04:04:19;6.00;;;2.42;;
74448;SDS011;62878;51.026;4.472;2022-12-11T04:06:45;6.97;;;3.53;;
74448;SDS011;62878;51.026;4.472;2022-12-11T04:09:10;6.03;;;3.22;;
74448;SDS011;62878;51.026;4.472;2022-12-11T04:11:36;5.70;;;2.53;;
74448;SDS011;62878;51.026;4.472;2022-12-11T04:14:08;6.75;;;3.05;;
74448;SDS011;62878;51.026;4.472;2022-12-11T04:16:56;7.13;;;3.35;;
74448;SDS011;62878;51.026;4.472;2022-12-11T04:19:22;6.88;;;3.00;;
74448;SDS011;62878;51.026;4.472;2022-12-11T04:22:08;5.80;;;2.35;;
74448;SDS011;62878;51.026;4.472;2022-12-11T04:24:56;5.18;;;2.25;;
74448;SDS011;62878;51.026;4.472;2022-12-11T04:27:21;9.45;;;3.20;;
74448;SDS011;62878;51.026;4.472;2022-12-11T04:30:08;6.60;;;3.17;;
74448;SDS011;62878;51.026;4.472;2022-12-11T04:32:36;8.52;;;2.88;;
74448;SDS011;62878;51.026;4.472;2022-12-11T04:35:02;7.57;;;3.25;;
74448;SDS011;62878;51.026;4.472;2022-12-11T04:37:28;7.25;;;3.38;;
74448;SDS011;62878;51.026;4.472;2022-12-11T04:39:54;6.80;;;4.35;;
74448;SDS011;62878;51.026;4.472;2022-12-11T04:42:19;6.25;;;3.40;;
74448;SDS011;62878;51.026;4.472;2022-12-11T04:44:44;6.53;;;2.75;;
74448;SDS011;62878;51.026;4.472;2022-12-11T04:47:09;6.05;;;3.08;;
74448;SDS011;62878;51.026;4.472;2022-12-11T04:49:35;7.45;;;3.70;;
74448;SDS011;62878;51.026;4.472;2022-12-11T04:52:00;5.43;;;2.53;;
74448;SDS011;62878;51.026;4.472;2022-12-11T04:54:27;5.32;;;3.17;;
74448;SDS011;62878;51.026;4.472;2022-12-11T04:56:55;10.27;;;3.67;;
74448;SDS011;62878;51.026;4.472;2022-12-11T04:59:20;7.60;;;3.63;;
74448;SDS011;62878;51.026;4.472;2022-12-11T05:01:45;9.10;;;3.38;;
74448;SDS011;62878;51.026;4.472;2022-12-11T05:04:11;7.60;;;3.55;;
74448;SDS011;62878;51.026;4.472;2022-12-11T05:06:37;7.90;;;3.10;;
74448;SDS011;62878;51.026;4.472;2022-12-11T05:09:02;8.05;;;3.33;;
74448;SDS011;62878;51.026;4.472;2022-12-11T05:11:28;6.13;;;3.30;;
74448;SDS011;62878;51.026;4.472;2022-12-11T05:13:53;11.32;;;3.38;;
74448;SDS011;62878;51.026;4.472;2022-12-11T05:16:19;9.15;;;3.05;;
74448;SDS011;62878;51.026;4.472;2022-12-11T05:18:44;8.88;;;3.25;;
74448;SDS011;62878;51.026;4.472;2022-12-11T05:21:12;8.05;;;3.75;;
74448;SDS011;62878;51.026;4.472;2022-12-11T05:23:38;6.47;;;3.30;;
74448;SDS011;62878;51.026;4.472;2022-12-11T05:26:05;8.35;;;3.75;;
74448;SDS011;62878;51.026;4.472;2022-12-11T05:28:33;9.63;;;4.03;;
74448;SDS011;62878;51.026;4.472;2022-12-11T05:31:02;9.25;;;4.15;;
74448;SDS011;62878;51.026;4.472;2022-12-11T05:33:32;10.02;;;3.67;;
74448;SDS011;62878;51.026;4.472;2022-12-11T05:35:58;5.35;;;3.00;;
74448;SDS011;62878;51.026;4.472;2022-12-11T05:38:23;6.50;;;3.38;;
74448;SDS011;62878;51.026;4.472;2022-12-11T05:41:03;8.35;;;3.78;;
74448;SDS011;62878;51.026;4.472;2022-12-11T05:43:31;7.45;;;3.40;;
74448;SDS011;62878;51.026;4.472;2022-12-11T05:48:56;10.00;;;4.22;;
74448;SDS011;62878;51.026;4.472;2022-12-11T05:51:23;7.05;;;3.47;;
74448;SDS011;62878;51.026;4.472;2022-12-11T05:53:50;6.32;;;3.47;;
74448;SDS011;62878;51.026;4.472;2022-12-11T05:56:17;11.60;;;4.45;;
74448;SDS011;62878;51.026;4.472;2022-12-11T05:58:45;8.45;;;3.60;;
74448;SDS011;62878;51.026;4.472;2022-12-11T06:01:22;8.63;;;4.03;;
74448;SDS011;62878;51.026;4.472;2022-12-11T06:03:58;8.63;;;4.13;;
74448;SDS011;62878;51.026;4.472;2022-12-11T06:06:24;6.97;;;3.90;;
74448;SDS011;62878;51.026;4.472;2022-12-11T06:08:50;9.43;;;3.55;;
74448;SDS011;62878;51.026;4.472;2022-12-11T06:11:17;8.15;;;4.47;;
74448;SDS011;62878;51.026;4.472;2022-12-11T06:13:43;8.05;;;3.30;;
74448;SDS011;62878;51.026;4.472;2022-12-11T06:16:09;8.98;;;4.07;;
74448;SDS011;62878;51.026;4.472;2022-12-11T06:18:35;8.35;;;3.95;;
74448;SDS011;62878;51.026;4.472;2022-12-11T06:21:09;7.38;;;3.20;;
74448;SDS011;62878;51.026;4.472;2022-12-11T06:23:45;8.88;;;3.30;;
74448;SDS011;62878;51.026;4.472;2022-12-11T06:26:11;7.20;;;3.60;;
74448;SDS011;62878;51.026;4.472;2022-12-11T06:28:38;8.85;;;3.53;;
74448;SDS011;62878;51.026;4.472;2022-12-11T06:31:03;7.88;;;3.45;;
74448;SDS011;62878;51.026;4.472;2022-12-11T06:33:29;9.02;;;3.40;;
74448;SDS011;62878;51.026;4.472;2022-12-11T06:35:55;9.07;;;4.20;;
74448;SDS011;62878;51.026;4.472;2022-12-11T06:38:24;7.18;;;4.20;;
74448;SDS011;62878;51.026;4.472;2022-12-11T06:40:56;8.20;;;4.05;;
74448;SDS011;62878;51.026;4.472;2022-12-11T06:43:23;8.05;;;3.45;;
74448;SDS011;62878;51.026;4.472;2022-12-11T06:45:49;7.97;;;3.38;;
74448;SDS011;62878;51.026;4.472;2022-12-11T06:48:15;10.25;;;4.40;;
74448;SDS011;62878;51.026;4.472;2022-12-11T06:50:41;9.15;;;3.22;;
74448;SDS011;62878;51.026;4.472;2022-12-11T06:53:06;8.50;;;4.40;;
74448;SDS011;62878;51.026;4.472;2022-12-11T06:55:34;9.23;;;3.90;;
74448;SDS011;62878;51.026;4.472;2022-12-11T06:58:00;9.38;;;3.80;;
74448;SDS011;62878;51.026;4.472;2022-12-11T07:00:25;7.10;;;3.65;;
74448;SDS011;62878;51.026;4.472;2022-12-11T07:02:51;7.90;;;3.42;;
74448;SDS011;62878;51.026;4.472;2022-12-11T07:05:16;8.30;;;3.47;;
74448;SDS011;62878;51.026;4.472;2022-12-11T07:07:41;9.52;;;4.53;;
74448;SDS011;62878;51.026;4.472;2022-12-11T07:10:07;9.75;;;3.47;;
74448;SDS011;62878;51.026;4.472;2022-12-11T07:12:33;7.85;;;3.78;;
74448;SDS011;62878;51.026;4.472;2022-12-11T07:14:58;8.73;;;3.70;;
74448;SDS011;62878;51.026;4.472;2022-12-11T07:17:24;9.43;;;4.40;;
74448;SDS011;62878;51.026;4.472;2022-12-11T07:19:49;8.13;;;3.97;;
74448;SDS011;62878;51.026;4.472;2022-12-11T07:22:14;8.10;;;3.97;;
74448;SDS011;62878;51.026;4.472;2022-12-11T07:24:40;9.52;;;4.45;;
74448;SDS011;62878;51.026;4.472;2022-12-11T07:27:05;9.38;;;4.38;;
74448;SDS011;62878;51.026;4.472;2022-12-11T07:29:30;7.53;;;4.05;;
74448;SDS011;62878;51.026;4.472;2022-12-11T07:31:56;10.02;;;4.05;;
74448;SDS011;62878;51.026;4.472;2022-12-11T07:34:22;8.65;;;3.80;;
74448;SDS011;62878;51.026;4.472;2022-12-11T07:36:47;8.00;;;3.83;;
74448;SDS011;62878;51.026;4.472;2022-12-11T07:39:13;10.55;;;3.97;;
74448;SDS011;62878;51.026;4.472;2022-12-11T07:41:39;6.32;;;3.55;;
74448;SDS011;62878;51.026;4.472;2022-12-11T07:44:04;10.75;;;4.95;;
74448;SDS011;62878;51.026;4.472;2022-12-11T07:46:31;9.18;;;4.20;;
74448;SDS011;62878;51.026;4.472;2022-12-11T07:48:57;8.98;;;4.53;;
74448;SDS011;62878;51.026;4.472;2022-12-11T07:51:34;9.20;;;4.47;;
74448;SDS011;62878;51.026;4.472;2022-12-11T07:54:04;8.60;;;4.38;;
74448;SDS011;62878;51.026;4.472;2022-12-11T07:56:32;9.00;;;4.60;;
74448;SDS011;62878;51.026;4.472;2022-12-11T07:58:59;12.73;;;4.93;;
74448;SDS011;62878;51.026;4.472;2022-12-11T08:01:26;11.07;;;5.10;;
74448;SDS011;62878;51.026;4.472;2022-12-11T08:03:53;9.70;;;5.55;;
74448;SDS011;62878;51.026;4.472;2022-12-11T08:06:23;10.95;;;5.28;;
74448;SDS011;62878;51.026;4.472;2022-12-11T08:08:52;9.18;;;4.05;;
74448;SDS011;62878;51.026;4.472;2022-12-11T08:11:17;7.45;;;3.80;;
74448;SDS011;62878;51.026;4.472;2022-12-11T08:13:43;7.40;;;3.88;;
74448;SDS011;62878;51.026;4.472;2022-12-11T08:16:09;7.15;;;3.75;;
74448;SDS011;62878;51.026;4.472;2022-12-11T08:18:37;8.57;;;4.00;;
74448;SDS011;62878;51.026;4.472;2022-12-11T08:21:24;8.65;;;4.20;;
74448;SDS011;62878;51.026;4.472;2022-12-11T08:23:51;9.10;;;4.03;;
74448;SDS011;62878;51.026;4.472;2022-12-11T08:26:19;9.38;;;4.05;;
74448;SDS011;62878;51.026;4.472;2022-12-11T08:28:46;11.38;;;4.93;;
74448;SDS011;62878;51.026;4.472;2022-12-11T08:31:12;8.82;;;4.65;;
74448;SDS011;62878;51.026;4.472;2022-12-11T08:33:39;8.73;;;4.35;;
74448;SDS011;62878;51.026;4.472;2022-12-11T08:36:06;10.57;;;4.22;;
74448;SDS011;62878;51.026;4.472;2022-12-11T08:38:33;8.57;;;4.18;;
74448;SDS011;62878;51.026;4.472;2022-12-11T08:41:07;7.43;;;3.60;;
74448;SDS011;62878;51.026;4.472;2022-12-11T08:43:36;10.80;;;4.20;;
74448;SDS011;62878;51.026;4.472;2022-12-11T08:46:02;7.35;;;3.80;;
74448;SDS011;62878;51.026;4.472;2022-12-11T08:48:28;10.18;;;5.05;;
74448;SDS011;62878;51.026;4.472;2022-12-11T08:50:53;9.50;;;5.10;;
74448;SDS011;62878;51.026;4.472;2022-12-11T08:53:19;9.70;;;4.90;;
74448;SDS011;62878;51.026;4.472;2022-12-11T08:55:44;8.65;;;3.83;;
74448;SDS011;62878;51.026;4.472;2022-12-11T08:58:09;9.40;;;4.38;;
74448;SDS011;62878;51.026;4.472;2022-12-11T09:00:35;6.22;;;3.60;;
74448;SDS011;62878;51.026;4.472;2022-12-11T09:03:00;7.63;;;3.80;;
74448;SDS011;62878;51.026;4.472;2022-12-11T09:05:26;8.02;;;4.15;;
74448;SDS011;62878;51.026;4.472;2022-12-11T09:07:51;9.77;;;4.63;;
74448;SDS011;62878;51.026;4.472;2022-12-11T09:10:17;6.95;;;3.60;;
74448;SDS011;62878;51.026;4.472;2022-12-11T09:12:42;9.35;;;4.63;;
74448;SDS011;62878;51.026;4.472;2022-12-11T09:15:07;7.57;;;3.33;;
74448;SDS011;62878;51.026;4.472;2022-12-11T09:17:33;9.18;;;3.75;;
74448;SDS011;62878;51.026;4.472;2022-12-11T09:19:59;9.25;;;4.15;;
74448;SDS011;62878;51.026;4.472;2022-12-11T09:22:24;9.27;;;4.68;;
74448;SDS011;62878;51.026;4.472;2022-12-11T09:24:50;12.30;;;5.80;;
74448;SDS011;62878;51.026;4.472;2022-12-11T09:27:16;18.88;;;9.05;;
74448;SDS011;62878;51.026;4.472;2022-12-11T09:29:41;18.25;;;8.48;;
74448;SDS011;62878;51.026;4.472;2022-12-11T09:32:07;17.23;;;8.10;;
74448;SDS011;62878;51.026;4.472;2022-12-11T09:34:32;16.35;;;7.68;;
74448;SDS011;62878;51.026;4.472;2022-12-11T09:36:57;17.88;;;8.02;;
74448;SDS011;62878;51.026;4.472;2022-12-11T09:39:23;14.18;;;6.88;;
74448;SDS011;62878;51.026;4.472;2022-12-11T09:42:07;13.38;;;7.63;;
74448;SDS011;62878;51.026;4.472;2022-12-11T09:44:45;13.80;;;6.28;;
74448;SDS011;62878;51.026;4.472;2022-12-11T09:47:22;14.75;;;6.20;;
74448;SDS011;62878;51.026;4.472;2022-12-11T09:50:03;15.00;;;6.10;;
74448;SDS011;62878;51.026;4.472;2022-12-11T09:58:21;12.02;;;5.20;;
74448;SDS011;62878;51.026;4.472;2022-12-11T10:01:01;11.85;;;5.47;;
74448;SDS011;62878;51.026;4.472;2022-12-11T10:03:40;14.27;;;6.03;;
74448;SDS011;62878;51.026;4.472;2022-12-11T10:06:11;14.02;;;5.63;;
74448;SDS011;62878;51.026;4.472;2022-12-11T10:08:44;12.52;;;5.28;;
74448;SDS011;62878;51.026;4.472;2022-12-11T10:11:33;13.52;;;5.43;;
74448;SDS011;62878;51.026;4.472;2022-12-11T10:14:13;8.65;;;4.40;;
74448;SDS011;62878;51.026;4.472;2022-12-11T10:17:45;11.57;;;5.25;;
74448;SDS011;62878;51.026;4.472;2022-12-11T10:19:51;10.07;;;4.80;;
74448;SDS011;62878;51.026;4.472;2022-12-11T10:22:20;10.13;;;5.18;;
74448;SDS011;62878;51.026;4.472;2022-12-11T10:25:06;9.75;;;4.15;;
74448;SDS011;62878;51.026;4.472;2022-12-11T10:27:38;13.40;;;5.60;;
74448;SDS011;62878;51.026;4.472;2022-12-11T10:30:23;12.05;;;5.20;;
74448;SDS011;62878;51.026;4.472;2022-12-11T10:35:39;10.52;;;4.60;;
74448;SDS011;62878;51.026;4.472;2022-12-11T10:41:00;15.90;;;4.47;;
74448;SDS011;62878;51.026;4.472;2022-12-11T10:46:04;9.98;;;5.05;;
74448;SDS011;62878;51.026;4.472;2022-12-11T10:48:31;8.40;;;4.30;;
74448;SDS011;62878;51.026;4.472;2022-12-11T10:50:58;7.88;;;3.55;;
74448;SDS011;62878;51.026;4.472;2022-12-11T10:53:26;6.10;;;3.28;;
74448;SDS011;62878;51.026;4.472;2022-12-11T10:55:53;7.15;;;3.58;;
74448;SDS011;62878;51.026;4.472;2022-12-11T10:58:22;22.98;;;7.40;;
74448;SDS011;62878;51.026;4.472;2022-12-11T11:06:27;13.00;;;6.15;;
74448;SDS011;62878;51.026;4.472;2022-12-11T11:08:53;16.48;;;6.70;;
74448;SDS011;62878;51.026;4.472;2022-12-11T11:13:48;10.20;;;5.28;;
74448;SDS011;62878;51.026;4.472;2022-12-11T11:16:14;14.57;;;6.90;;
74448;SDS011;62878;51.026;4.472;2022-12-11T11:18:48;9.35;;;4.35;;
74448;SDS011;62878;51.026;4.472;2022-12-11T11:21:19;11.38;;;5.15;;
74448;SDS011;62878;51.026;4.472;2022-12-11T11:23:47;8.98;;;4.38;;
74448;SDS011;62878;51.026;4.472;2022-12-11T11:26:13;7.53;;;3.70;;
74448;SDS011;62878;51.026;4.472;2022-12-11T11:28:40;11.00;;;4.82;;
74448;SDS011;62878;51.026;4.472;2022-12-11T11:31:17;11.35;;;5.30;;
74448;SDS011;62878;51.026;4.472;2022-12-11T11:36:24;10.98;;;4.60;;
74448;SDS011;62878;51.026;4.472;2022-12-11T11:44:41;11.02;;;4.63;;
74448;SDS011;62878;51.026;4.472;2022-12-11T11:47:26;9.02;;;4.38;;
74448;SDS011;62878;51.026;4.472;2022-12-11T11:50:15;8.00;;;3.53;;
74448;SDS011;62878;51.026;4.472;2022-12-11T11:58:02;11.18;;;4.10;;
74448;SDS011;62878;51.026;4.472;2022-12-11T12:00:33;9.10;;;4.07;;
74448;SDS011;62878;51.026;4.472;2022-12-11T12:03:00;9.43;;;4.25;;
74448;SDS011;62878;51.026;4.472;2022-12-11T12:05:36;7.88;;;3.38;;
74448;SDS011;62878;51.026;4.472;2022-12-11T12:08:11;8.02;;;3.85;;
74448;SDS011;62878;51.026;4.472;2022-12-11T12:10:54;6.95;;;3.15;;
74448;SDS011;62878;51.026;4.472;2022-12-11T12:19:02;7.60;;;3.30;;
74448;SDS011;62878;51.026;4.472;2022-12-11T12:21:45;7.68;;;3.63;;
74448;SDS011;62878;51.026;4.472;2022-12-11T12:24:28;9.32;;;3.80;;
74448;SDS011;62878;51.026;4.472;2022-12-11T12:27:03;7.38;;;3.33;;
74448;SDS011;62878;51.026;4.472;2022-12-11T12:29:57;8.52;;;3.65;;
74448;SDS011;62878;51.026;4.472;2022-12-11T12:35:35;7.22;;;3.88;;
74448;SDS011;62878;51.026;4.472;2022-12-11T12:43:20;8.90;;;3.80;;
74448;SDS011;62878;51.026;4.472;2022-12-11T12:48:47;8.77;;;3.05;;
74448;SDS011;62878;51.026;4.472;2022-12-11T12:51:14;6.40;;;3.40;;
74448;SDS011;62878;51.026;4.472;2022-12-11T12:53:43;8.88;;;3.40;;
74448;SDS011;62878;51.026;4.472;2022-12-11T12:56:16;8.27;;;2.97;;
74448;SDS011;62878;51.026;4.472;2022-12-11T12:58:42;7.55;;;3.03;;
74448;SDS011;62878;51.026;4.472;2022-12-11T13:06:30;8.05;;;3.17;;
74448;SDS011;62878;51.026;4.472;2022-12-11T13:09:15;8.25;;;3.10;;
74448;SDS011;62878;51.026;4.472;2022-12-11T13:11:47;10.60;;;3.58;;
74448;SDS011;62878;51.026;4.472;2022-12-11T13:16:46;8.63;;;3.08;;
74448;SDS011;62878;51.026;4.472;2022-12-11T13:21:57;7.45;;;3.05;;
74448;SDS011;62878;51.026;4.472;2022-12-11T13:24:27;6.57;;;3.08;;
74448;SDS011;62878;51.026;4.472;2022-12-11T13:26:55;9.02;;;3.75;;
74448;SDS011;62878;51.026;4.472;2022-12-11T13:29:34;10.10;;;3.22;;
74448;SDS011;62878;51.026;4.472;2022-12-11T13:34:36;9.05;;;3.38;;
74448;SDS011;62878;51.026;4.472;2022-12-11T13:37:04;7.90;;;2.65;;
74448;SDS011;62878;51.026;4.472;2022-12-11T13:39:32;8.07;;;3.42;;
74448;SDS011;62878;51.026;4.472;2022-12-11T13:42:06;16.20;;;6.82;;
74448;SDS011;62878;51.026;4.472;2022-12-11T13:47:11;12.52;;;6.07;;
74448;SDS011;62878;51.026;4.472;2022-12-11T13:49:39;15.95;;;5.60;;
74448;SDS011;62878;51.026;4.472;2022-12-11T13:52:14;12.25;;;5.30;;
74448;SDS011;62878;51.026;4.472;2022-12-11T13:54:45;12.70;;;5.57;;
74448;SDS011;62878;51.026;4.472;2022-12-11T13:57:19;12.77;;;6.25;;
74448;SDS011;62878;51.026;4.472;2022-12-11T13:59:54;11.93;;;4.03;;
74448;SDS011;62878;51.026;4.472;2022-12-11T14:02:22;10.45;;;4.45;;
74448;SDS011;62878;51.026;4.472;2022-12-11T14:04:50;12.73;;;4.55;;
74448;SDS011;62878;51.026;4.472;2022-12-11T14:07:22;8.80;;;3.80;;
74448;SDS011;62878;51.026;4.472;2022-12-11T14:09:52;11.35;;;5.20;;
74448;SDS011;62878;51.026;4.472;2022-12-11T14:12:24;7.38;;;2.78;;
74448;SDS011;62878;51.026;4.472;2022-12-11T14:14:50;9.77;;;4.00;;
74448;SDS011;62878;51.026;4.472;2022-12-11T14:17:22;10.38;;;4.20;;
74448;SDS011;62878;51.026;4.472;2022-12-11T14:19:50;9.65;;;4.15;;
74448;SDS011;62878;51.026;4.472;2022-12-11T14:22:20;6.35;;;2.58;;
74448;SDS011;62878;51.026;4.472;2022-12-11T14:24:53;9.85;;;3.22;;
74448;SDS011;62878;51.026;4.472;2022-12-11T14:27:20;9.38;;;3.25;;
74448;SDS011;62878;51.026;4.472;2022-12-11T14:29:46;6.70;;;2.78;;
74448;SDS011;62878;51.026;4.472;2022-12-11T14:34:47;10.10;;;3.47;;
74448;SDS011;62878;51.026;4.472;2022-12-11T14:37:14;9.30;;;3.50;;
74448;SDS011;62878;51.026;4.472;2022-12-11T14:39:45;9.30;;;3.35;;
74448;SDS011;62878;51.026;4.472;2022-12-11T14:42:17;7.53;;;4.03;;
74448;SDS011;62878;51.026;4.472;2022-12-11T14:44:47;4.78;;;2.42;;
74448;SDS011;62878;51.026;4.472;2022-12-11T14:47:26;7.40;;;3.55;;
74448;SDS011;62878;51.026;4.472;2022-12-11T14:50:04;9.68;;;4.20;;
74448;SDS011;62878;51.026;4.472;2022-12-11T14:52:37;10.55;;;3.35;;
74448;SDS011;62878;51.026;4.472;2022-12-11T14:55:08;7.45;;;3.78;;
74448;SDS011;62878;51.026;4.472;2022-12-11T14:57:39;9.30;;;3.50;;
74448;SDS011;62878;51.026;4.472;2022-12-11T15:00:05;9.70;;;3.28;;
74448;SDS011;62878;51.026;4.472;2022-12-11T15:02:33;6.90;;;2.88;;
74448;SDS011;62878;51.026;4.472;2022-12-11T15:05:21;6.20;;;3.03;;
74448;SDS011;62878;51.026;4.472;2022-12-11T15:07:55;7.13;;;3.28;;
74448;SDS011;62878;51.026;4.472;2022-12-11T15:10:27;7.03;;;3.05;;
74448;SDS011;62878;51.026;4.472;2022-12-11T15:12:57;11.98;;;4.22;;
74448;SDS011;62878;51.026;4.472;2022-12-11T15:15:23;6.78;;;3.40;;
74448;SDS011;62878;51.026;4.472;2022-12-11T15:17:49;8.10;;;3.13;;
74448;SDS011;62878;51.026;4.472;2022-12-11T15:20:33;8.15;;;3.90;;
74448;SDS011;62878;51.026;4.472;2022-12-11T15:22:59;9.02;;;3.70;;
74448;SDS011;62878;51.026;4.472;2022-12-11T15:25:26;8.35;;;4.13;;
74448;SDS011;62878;51.026;4.472;2022-12-11T15:27:57;7.45;;;3.78;;
74448;SDS011;62878;51.026;4.472;2022-12-11T15:30:25;7.72;;;3.88;;
74448;SDS011;62878;51.026;4.472;2022-12-11T15:35:36;11.00;;;4.10;;
74448;SDS011;62878;51.026;4.472;2022-12-11T15:38:03;8.70;;;3.78;;
74448;SDS011;62878;51.026;4.472;2022-12-11T15:40:29;9.57;;;3.10;;
74448;SDS011;62878;51.026;4.472;2022-12-11T15:42:54;8.60;;;3.72;;
74448;SDS011;62878;51.026;4.472;2022-12-11T15:45:21;8.82;;;3.90;;
74448;SDS011;62878;51.026;4.472;2022-12-11T15:47:49;7.47;;;3.88;;
74448;SDS011;62878;51.026;4.472;2022-12-11T15:50:16;7.55;;;3.10;;
74448;SDS011;62878;51.026;4.472;2022-12-11T15:52:43;10.13;;;3.95;;
74448;SDS011;62878;51.026;4.472;2022-12-11T15:55:10;11.23;;;3.90;;
74448;SDS011;62878;51.026;4.472;2022-12-11T15:57:35;7.72;;;3.47;;
74448;SDS011;62878;51.026;4.472;2022-12-11T16:00:02;7.95;;;3.45;;
74448;SDS011;62878;51.026;4.472;2022-12-11T16:02:30;10.18;;;3.60;;
74448;SDS011;62878;51.026;4.472;2022-12-11T16:04:56;7.38;;;3.53;;
74448;SDS011;62878;51.026;4.472;2022-12-11T16:07:22;9.48;;;3.92;;
74448;SDS011;62878;51.026;4.472;2022-12-11T16:09:49;8.38;;;4.15;;
74448;SDS011;62878;51.026;4.472;2022-12-11T16:12:15;9.85;;;3.90;;
74448;SDS011;62878;51.026;4.472;2022-12-11T16:14:41;8.13;;;4.05;;
74448;SDS011;62878;51.026;4.472;2022-12-11T16:17:07;6.13;;;3.50;;
74448;SDS011;62878;51.026;4.472;2022-12-11T16:19:34;10.57;;;4.30;;
74448;SDS011;62878;51.026;4.472;2022-12-11T16:21:59;9.23;;;4.30;;
74448;SDS011;62878;51.026;4.472;2022-12-11T16:24:25;9.75;;;4.47;;
74448;SDS011;62878;51.026;4.472;2022-12-11T16:26:51;9.93;;;4.45;;
74448;SDS011;62878;51.026;4.472;2022-12-11T16:29:16;7.57;;;3.72;;